sensor_id;sensor_type;location;lat;lon;timestamp;pressure;altitude;pressure_sealevel;temperature;humidity
34925;BME280;21130;51.728;8.748;2023-03-13T00:00:22;99362.16;;;8.53;100.00
34925;BME280;21130;51.728;8.748;2023-03-13T00:02:50;99356.03;;;8.51;100.00
34925;BME280;21130;51.728;8.748;2023-03-13T00:05:16;99344.44;;;8.54;100.00
34925;BME280;21130;51.728;8.748;2023-03-13T00:07:43;99352.16;;;8.52;100.00
34925;BME280;21130;51.728;8.748;2023-03-13T00:10:10;99348.25;;;8.48;100.00
34925;BME280;21130;51.728;8.748;2023-03-13T00:12:36;99342.72;;;8.48;100.00
34925;BME280;21130;51.728;8.748;2023-03-13T00:15:03;99341.63;;;8.49;100.00
34925;BME280;21130;51.728;8.748;2023-03-13T00:17:30;99336.34;;;8.47;100.00
34925;BME280;21130;51.728;8.748;2023-03-13T00:19:58;99324.72;;;8.45;100.00
34925;BME280;21130;51.728;8.748;2023-03-13T00:22:25;99323.88;;;8.44;100.00
34925;BME280;21130;51.728;8.748;2023-03-13T00:24:52;99319.75;;;8.47;100.00
34925;BME280;21130;51.728;8.748;2023-03-13T00:27:18;99313.16;;;8.48;100.00
34925;BME280;21130;51.728;8.748;2023-03-13T00:29:44;99314.19;;;8.42;100.00
34925;BME280;21130;51.728;8.748;2023-03-13T00:32:11;99306.72;;;8.42;100.00
34925;BME280;21130;51.728;8.748;2023-03-13T00:34:37;99292.63;;;8.44;100.00
34925;BME280;21130;51.728;8.748;2023-03-13T00:37:05;99292.63;;;8.44;100.00
34925;BME280;21130;51.728;8.748;2023-03-13T00:39:31;99289.66;;;8.51;100.00
34925;BME280;21130;51.728;8.748;2023-03-13T00:41:58;99298.53;;;8.53;100.00
34925;BME280;21130;51.728;8.748;2023-03-13T00:44:28;99289.13;;;8.54;100.00
34925;BME280;21130;51.728;8.748;2023-03-13T00:46:54;99283.31;;;8.50;100.00
34925;BME280;21130;51.728;8.748;2023-03-13T00:49:20;99285.56;;;8.53;100.00
34925;BME280;21130;51.728;8.748;2023-03-13T00:51:47;99281.44;;;8.56;100.00
34925;BME280;21130;51.728;8.748;2023-03-13T00:54:15;99272.34;;;8.60;100.00
34925;BME280;21130;51.728;8.748;2023-03-13T00:56:41;99263.78;;;8.62;100.00
34925;BME280;21130;51.728;8.748;2023-03-13T00:59:07;99255.75;;;8.60;100.00
34925;BME280;21130;51.728;8.748;2023-03-13T01:01:34;99254.41;;;8.63;100.00
34925;BME280;21130;51.728;8.748;2023-03-13T01:04:03;99257.50;;;8.72;100.00
34925;BME280;21130;51.728;8.748;2023-03-13T01:06:31;99251.72;;;8.73;100.00
34925;BME280;21130;51.728;8.748;2023-03-13T01:08:58;99246.47;;;8.77;100.00
34925;BME280;21130;51.728;8.748;2023-03-13T01:11:28;99237.88;;;8.73;100.00
34925;BME280;21130;51.728;8.748;2023-03-13T01:13:56;99237.03;;;8.73;100.00
34925;BME280;21130;51.728;8.748;2023-03-13T01:16:24;99241.53;;;8.79;100.00
34925;BME280;21130;51.728;8.748;2023-03-13T01:18:53;99234.34;;;8.78;100.00
34925;BME280;21130;51.728;8.748;2023-03-13T01:21:21;99229.06;;;8.76;100.00
34925;BME280;21130;51.728;8.748;2023-03-13T01:23:49;99219.13;;;8.80;100.00
34925;BME280;21130;51.728;8.748;2023-03-13T01:26:16;99212.78;;;8.85;100.00
34925;BME280;21130;51.728;8.748;2023-03-13T01:28:44;99207.81;;;8.87;100.00
34925;BME280;21130;51.728;8.748;2023-03-13T01:31:12;99202.03;;;8.89;100.00
34925;BME280;21130;51.728;8.748;2023-03-13T01:33:38;99199.25;;;8.89;100.00
34925;BME280;21130;51.728;8.748;2023-03-13T01:36:06;99194.03;;;8.92;100.00
34925;BME280;21130;51.728;8.748;2023-03-13T01:38:33;99190.44;;;8.92;100.00
34925;BME280;21130;51.728;8.748;2023-03-13T01:40:59;99186.53;;;8.93;100.00
34925;BME280;21130;51.728;8.748;2023-03-13T01:43:27;99184.94;;;8.97;100.00
34925;BME280;21130;51.728;8.748;2023-03-13T01:46:04;99177.44;;;8.97;100.00
34925;BME280;21130;51.728;8.748;2023-03-13T01:48:44;99162.25;;;9.00;100.00
34925;BME280;21130;51.728;8.748;2023-03-13T01:51:17;99165.03;;;9.05;100.00
34925;BME280;21130;51.728;8.748;2023-03-13T01:53:49;99151.47;;;8.98;100.00
34925;BME280;21130;51.728;8.748;2023-03-13T01:56:20;99158.88;;;8.93;100.00
34925;BME280;21130;51.728;8.748;2023-03-13T01:58:48;99142.03;;;8.94;100.00
34925;BME280;21130;51.728;8.748;2023-03-13T02:01:19;99140.63;;;8.92;100.00
34925;BME280;21130;51.728;8.748;2023-03-13T02:03:46;99131.47;;;8.86;100.00
34925;BME280;21130;51.728;8.748;2023-03-13T02:06:14;99132.25;;;8.81;100.00
34925;BME280;21130;51.728;8.748;2023-03-13T02:08:45;99119.19;;;8.72;100.00
34925;BME280;21130;51.728;8.748;2023-03-13T02:11:19;99119.97;;;8.62;100.00
34925;BME280;21130;51.728;8.748;2023-03-13T02:13:49;99109.66;;;8.52;100.00
34925;BME280;21130;51.728;8.748;2023-03-13T02:16:20;99109.31;;;8.43;100.00
34925;BME280;21130;51.728;8.748;2023-03-13T02:18:47;99099.28;;;8.37;100.00
34925;BME280;21130;51.728;8.748;2023-03-13T02:21:19;99087.75;;;8.40;100.00
34925;BME280;21130;51.728;8.748;2023-03-13T02:23:55;99080.53;;;8.39;100.00
34925;BME280;21130;51.728;8.748;2023-03-13T02:26:25;99073.94;;;8.40;100.00
34925;BME280;21130;51.728;8.748;2023-03-13T02:28:52;99067.31;;;8.47;100.00
34925;BME280;21130;51.728;8.748;2023-03-13T02:31:18;99046.91;;;8.53;100.00
34925;BME280;21130;51.728;8.748;2023-03-13T02:33:45;99040.84;;;8.56;100.00
34925;BME280;21130;51.728;8.748;2023-03-13T02:36:13;99013.16;;;8.51;100.00
34925;BME280;21130;51.728;8.748;2023-03-13T02:38:45;99007.06;;;8.49;100.00
34925;BME280;21130;51.728;8.748;2023-03-13T02:41:14;98999.03;;;8.47;100.00
34925;BME280;21130;51.728;8.748;2023-03-13T02:43:42;99000.44;;;8.55;100.00
34925;BME280;21130;51.728;8.748;2023-03-13T02:46:12;98995.19;;;8.53;100.00
34925;BME280;21130;51.728;8.748;2023-03-13T02:48:40;98985.00;;;8.59;100.00
34925;BME280;21130;51.728;8.748;2023-03-13T02:51:12;98968.66;;;8.57;100.00
34925;BME280;21130;51.728;8.748;2023-03-13T02:53:40;98977.28;;;8.66;100.00
34925;BME280;21130;51.728;8.748;2023-03-13T02:56:07;98971.81;;;8.81;100.00
34925;BME280;21130;51.728;8.748;2023-03-13T02:58:41;98961.06;;;8.95;100.00
34925;BME280;21130;51.728;8.748;2023-03-13T03:01:08;98959.16;;;8.96;100.00
34925;BME280;21130;51.728;8.748;2023-03-13T03:03:35;98935.34;;;9.10;100.00
34925;BME280;21130;51.728;8.748;2023-03-13T03:06:02;98928.44;;;9.07;100.00
34925;BME280;21130;51.728;8.748;2023-03-13T03:08:29;98927.91;;;9.16;100.00
34925;BME280;21130;51.728;8.748;2023-03-13T03:10:56;98912.13;;;9.21;100.00
34925;BME280;21130;51.728;8.748;2023-03-13T03:13:23;98921.00;;;9.28;100.00
34925;BME280;21130;51.728;8.748;2023-03-13T03:15:51;98909.94;;;9.39;100.00
34925;BME280;21130;51.728;8.748;2023-03-13T03:18:17;98909.94;;;9.39;100.00
34925;BME280;21130;51.728;8.748;2023-03-13T03:20:44;98897.75;;;9.40;100.00
34925;BME280;21130;51.728;8.748;2023-03-13T03:23:10;98883.91;;;9.35;100.00
34925;BME280;21130;51.728;8.748;2023-03-13T03:25:37;98890.56;;;9.34;100.00
34925;BME280;21130;51.728;8.748;2023-03-13T03:28:03;98893.31;;;9.28;100.00
34925;BME280;21130;51.728;8.748;2023-03-13T03:30:30;98882.81;;;9.30;100.00
34925;BME280;21130;51.728;8.748;2023-03-13T03:32:57;98888.63;;;9.34;100.00
34925;BME280;21130;51.728;8.748;2023-03-13T03:35:24;98882.50;;;9.37;100.00
34925;BME280;21130;51.728;8.748;2023-03-13T03:37:50;98876.16;;;9.37;100.00
34925;BME280;21130;51.728;8.748;2023-03-13T03:40:17;98886.97;;;9.33;100.00
34925;BME280;21130;51.728;8.748;2023-03-13T03:42:45;98886.97;;;9.33;100.00
34925;BME280;21130;51.728;8.748;2023-03-13T03:45:11;98891.66;;;9.33;100.00
34925;BME280;21130;51.728;8.748;2023-03-13T03:47:38;98878.94;;;9.32;100.00
34925;BME280;21130;51.728;8.748;2023-03-13T03:50:07;98876.97;;;9.37;100.00
34925;BME280;21130;51.728;8.748;2023-03-13T03:52:35;98870.63;;;9.37;100.00
34925;BME280;21130;51.728;8.748;2023-03-13T03:55:02;98875.59;;;9.35;100.00
34925;BME280;21130;51.728;8.748;2023-03-13T03:57:28;98876.72;;;9.28;100.00
34925;BME280;21130;51.728;8.748;2023-03-13T03:59:55;98873.66;;;9.25;100.00
34925;BME280;21130;51.728;8.748;2023-03-13T04:02:21;98866.72;;;9.17;100.00
34925;BME280;21130;51.728;8.748;2023-03-13T04:04:47;98860.38;;;9.12;100.00
34925;BME280;21130;51.728;8.748;2023-03-13T04:07:15;98846.28;;;9.08;100.00
34925;BME280;21130;51.728;8.748;2023-03-13T04:09:41;98850.69;;;9.04;100.00
34925;BME280;21130;51.728;8.748;2023-03-13T04:12:08;98847.09;;;9.08;100.00
34925;BME280;21130;51.728;8.748;2023-03-13T04:14:35;98841.00;;;9.06;100.00
34925;BME280;21130;51.728;8.748;2023-03-13T04:17:01;98849.56;;;9.05;100.00
34925;BME280;21130;51.728;8.748;2023-03-13T04:19:27;98843.75;;;9.06;100.00
34925;BME280;21130;51.728;8.748;2023-03-13T04:21:54;98826.91;;;9.23;100.00
34925;BME280;21130;51.728;8.748;2023-03-13T04:24:21;98836.03;;;9.24;100.00
34925;BME280;21130;51.728;8.748;2023-03-13T04:26:48;98813.59;;;9.25;100.00
34925;BME280;21130;51.728;8.748;2023-03-13T04:29:14;98810.84;;;9.25;100.00
34925;BME280;21130;51.728;8.748;2023-03-13T04:31:41;98815.50;;;9.30;100.00
34925;BME280;21130;51.728;8.748;2023-03-13T04:34:07;98814.69;;;9.29;100.00
34925;BME280;21130;51.728;8.748;2023-03-13T04:36:33;98819.66;;;9.27;100.00
34925;BME280;21130;51.728;8.748;2023-03-13T04:39:00;98829.66;;;9.23;100.00
34925;BME280;21130;51.728;8.748;2023-03-13T04:41:28;98831.31;;;9.24;100.00
34925;BME280;21130;51.728;8.748;2023-03-13T04:43:54;98822.44;;;9.22;100.00
34925;BME280;21130;51.728;8.748;2023-03-13T04:46:21;98813.59;;;9.25;100.00
34925;BME280;21130;51.728;8.748;2023-03-13T04:48:47;98815.50;;;9.30;100.00
34925;BME280;21130;51.728;8.748;2023-03-13T04:51:13;98809.97;;;9.40;100.00
34925;BME280;21130;51.728;8.748;2023-03-13T04:53:40;98822.16;;;9.39;100.00
34925;BME280;21130;51.728;8.748;2023-03-13T04:56:06;98801.13;;;9.48;100.00
34925;BME280;21130;51.728;8.748;2023-03-13T04:58:34;98810.78;;;9.61;100.00
34925;BME280;21130;51.728;8.748;2023-03-13T05:01:00;98806.06;;;9.62;100.00
34925;BME280;21130;51.728;8.748;2023-03-13T05:03:26;98801.88;;;9.74;100.00
34925;BME280;21130;51.728;8.748;2023-03-13T05:05:53;98800.22;;;9.79;100.00
34925;BME280;21130;51.728;8.748;2023-03-13T05:08:19;98791.91;;;9.73;100.00
34925;BME280;21130;51.728;8.748;2023-03-13T05:10:46;98768.63;;;9.80;100.00
34925;BME280;21130;51.728;8.748;2023-03-13T05:13:12;98791.06;;;9.83;100.00
34925;BME280;21130;51.728;8.748;2023-03-13T05:15:40;98783.00;;;9.87;100.00
34925;BME280;21130;51.728;8.748;2023-03-13T05:18:06;98770.25;;;9.91;100.00
34925;BME280;21130;51.728;8.748;2023-03-13T05:20:33;98763.31;;;9.93;100.00
34925;BME280;21130;51.728;8.748;2023-03-13T05:22:59;98769.38;;;10.01;100.00
34925;BME280;21130;51.728;8.748;2023-03-13T05:25:26;98766.88;;;9.99;100.00
34925;BME280;21130;51.728;8.748;2023-03-13T05:27:52;98761.59;;;10.03;100.00
34925;BME280;21130;51.728;8.748;2023-03-13T05:30:19;98752.72;;;10.06;100.00
34925;BME280;21130;51.728;8.748;2023-03-13T05:32:46;98751.88;;;10.05;100.00
34925;BME280;21130;51.728;8.748;2023-03-13T05:35:13;98754.94;;;10.04;100.00
34925;BME280;21130;51.728;8.748;2023-03-13T05:37:39;98743.03;;;10.03;100.00
34925;BME280;21130;51.728;8.748;2023-03-13T05:40:07;98739.69;;;10.06;100.00
34925;BME280;21130;51.728;8.748;2023-03-13T05:42:36;98738.53;;;10.12;100.00
34925;BME280;21130;51.728;8.748;2023-03-13T05:45:02;98745.75;;;10.13;100.00
34925;BME280;21130;51.728;8.748;2023-03-13T05:47:29;98741.84;;;10.20;100.00
34925;BME280;21130;51.728;8.748;2023-03-13T05:49:56;98737.41;;;10.19;100.00
34925;BME280;21130;51.728;8.748;2023-03-13T05:52:23;98740.22;;;10.13;100.00
34925;BME280;21130;51.728;8.748;2023-03-13T05:54:49;98727.72;;;10.16;100.00
34925;BME280;21130;51.728;8.748;2023-03-13T05:57:15;98739.06;;;10.20;100.00
34925;BME280;21130;51.728;8.748;2023-03-13T05:59:42;98741.28;;;10.17;100.00
34925;BME280;21130;51.728;8.748;2023-03-13T06:02:09;98740.22;;;10.13;100.00
34925;BME280;21130;51.728;8.748;2023-03-13T06:04:35;98743.00;;;10.08;100.00
34925;BME280;21130;51.728;8.748;2023-03-13T06:07:03;98735.53;;;10.09;100.00
34925;BME280;21130;51.728;8.748;2023-03-13T06:09:30;98748.50;;;10.19;100.00
34925;BME280;21130;51.728;8.748;2023-03-13T06:11:56;98741.03;;;10.14;100.00
34925;BME280;21130;51.728;8.748;2023-03-13T06:14:23;98740.19;;;10.19;100.00
34925;BME280;21130;51.728;8.748;2023-03-13T06:16:50;98741.81;;;10.30;100.00
34925;BME280;21130;51.728;8.748;2023-03-13T06:19:16;98729.31;;;10.32;100.00
34925;BME280;21130;51.728;8.748;2023-03-13T06:21:43;98733.78;;;10.28;100.00
34925;BME280;21130;51.728;8.748;2023-03-13T06:24:11;98744.00;;;10.33;100.00
34925;BME280;21130;51.728;8.748;2023-03-13T06:26:37;98734.63;;;10.29;100.00
34925;BME280;21130;51.728;8.748;2023-03-13T06:29:04;98740.97;;;10.29;100.00
34925;BME280;21130;51.728;8.748;2023-03-13T06:31:30;98738.41;;;10.38;100.00
34925;BME280;21130;51.728;8.748;2023-03-13T06:33:57;98744.47;;;10.45;100.00
34925;BME280;21130;51.728;8.748;2023-03-13T06:36:24;98741.97;;;10.49;100.00
34925;BME280;21130;51.728;8.748;2023-03-13T06:38:51;98740.56;;;10.51;100.00
34925;BME280;21130;51.728;8.748;2023-03-13T06:41:18;98746.13;;;10.51;100.00
34925;BME280;21130;51.728;8.748;2023-03-13T06:43:45;98730.81;;;10.59;100.00
34925;BME280;21130;51.728;8.748;2023-03-13T06:46:15;98735.50;;;10.64;100.00
34925;BME280;21130;51.728;8.748;2023-03-13T06:48:42;98749.88;;;10.66;100.00
34925;BME280;21130;51.728;8.748;2023-03-13T06:51:10;98732.13;;;10.67;100.00
34925;BME280;21130;51.728;8.748;2023-03-13T06:53:37;98760.69;;;10.67;100.00
34925;BME280;21130;51.728;8.748;2023-03-13T06:56:04;98744.06;;;10.67;100.00
34925;BME280;21130;51.728;8.748;2023-03-13T06:58:32;98734.25;;;10.80;100.00
34925;BME280;21130;51.728;8.748;2023-03-13T07:00:58;98739.75;;;10.85;100.00
34925;BME280;21130;51.728;8.748;2023-03-13T07:03:25;98745.56;;;10.89;100.00
34925;BME280;21130;51.728;8.748;2023-03-13T07:05:54;98738.34;;;10.88;100.00
34925;BME280;21130;51.728;8.748;2023-03-13T07:08:21;98741.38;;;10.91;100.00
34925;BME280;21130;51.728;8.748;2023-03-13T07:10:49;98740.25;;;10.92;100.00
34925;BME280;21130;51.728;8.748;2023-03-13T07:13:17;98744.38;;;10.95;100.00
34925;BME280;21130;51.728;8.748;2023-03-13T07:15:47;98749.66;;;10.96;100.00
34925;BME280;21130;51.728;8.748;2023-03-13T07:18:14;98742.94;;;11.02;100.00
34925;BME280;21130;51.728;8.748;2023-03-13T07:20:40;98739.09;;;10.98;100.00
34925;BME280;21130;51.728;8.748;2023-03-13T07:23:07;98744.28;;;11.05;100.00
34925;BME280;21130;51.728;8.748;2023-03-13T07:25:33;98740.13;;;11.08;100.00
34925;BME280;21130;51.728;8.748;2023-03-13T07:28:00;98740.94;;;11.08;100.00
34925;BME280;21130;51.728;8.748;2023-03-13T07:30:26;98741.16;;;11.17;100.00
34925;BME280;21130;51.728;8.748;2023-03-13T07:32:54;98746.69;;;11.17;100.00
34925;BME280;21130;51.728;8.748;2023-03-13T07:35:20;98748.88;;;11.20;100.00
34925;BME280;21130;51.728;8.748;2023-03-13T07:37:47;98743.06;;;11.21;100.00
34925;BME280;21130;51.728;8.748;2023-03-13T07:40:13;98742.19;;;11.21;100.00
34925;BME280;21130;51.728;8.748;2023-03-13T07:42:40;98758.00;;;11.25;100.00
34925;BME280;21130;51.728;8.748;2023-03-13T07:45:07;98758.78;;;11.31;100.00
34925;BME280;21130;51.728;8.748;2023-03-13T07:47:34;98761.56;;;11.31;100.00
34925;BME280;21130;51.728;8.748;2023-03-13T07:50:02;98760.66;;;11.36;100.00
34925;BME280;21130;51.728;8.748;2023-03-13T07:52:29;98761.75;;;11.40;100.00
34925;BME280;21130;51.728;8.748;2023-03-13T07:54:55;98750.03;;;11.43;100.00
34925;BME280;21130;51.728;8.748;2023-03-13T07:57:22;98764.72;;;11.49;100.00
34925;BME280;21130;51.728;8.748;2023-03-13T07:59:48;98760.22;;;11.53;100.00
34925;BME280;21130;51.728;8.748;2023-03-13T08:02:15;98761.25;;;11.62;100.00
34925;BME280;21130;51.728;8.748;2023-03-13T08:04:50;98753.69;;;11.67;100.00
34925;BME280;21130;51.728;8.748;2023-03-13T08:07:18;98740.78;;;11.77;100.00
34925;BME280;21130;51.728;8.748;2023-03-13T08:09:45;98738.50;;;11.84;100.00
34925;BME280;21130;51.728;8.748;2023-03-13T08:12:11;98730.94;;;11.89;100.00
34925;BME280;21130;51.728;8.748;2023-03-13T08:14:37;98736.50;;;11.89;100.00
34925;BME280;21130;51.728;8.748;2023-03-13T08:17:04;98728.63;;;11.97;100.00
34925;BME280;21130;51.728;8.748;2023-03-13T08:19:31;98719.69;;;12.00;100.00
34925;BME280;21130;51.728;8.748;2023-03-13T08:21:57;98721.13;;;11.97;100.00
34925;BME280;21130;51.728;8.748;2023-03-13T08:24:25;98715.69;;;12.06;100.00
34925;BME280;21130;51.728;8.748;2023-03-13T08:26:51;98707.47;;;12.20;100.00
34925;BME280;21130;51.728;8.748;2023-03-13T08:29:18;98699.56;;;12.27;100.00
34925;BME280;21130;51.728;8.748;2023-03-13T08:31:45;98702.50;;;12.36;100.00
34925;BME280;21130;51.728;8.748;2023-03-13T08:34:13;98695.13;;;12.45;100.00
34925;BME280;21130;51.728;8.748;2023-03-13T08:36:40;98697.38;;;12.43;100.00
34925;BME280;21130;51.728;8.748;2023-03-13T08:39:10;98685.63;;;12.46;100.00
34925;BME280;21130;51.728;8.748;2023-03-13T08:41:38;98675.03;;;12.48;100.00
34925;BME280;21130;51.728;8.748;2023-03-13T08:44:07;98684.22;;;12.48;100.00
34925;BME280;21130;51.728;8.748;2023-03-13T08:46:36;98682.28;;;12.49;100.00
34925;BME280;21130;51.728;8.748;2023-03-13T08:49:04;98671.66;;;12.51;100.00
34925;BME280;21130;51.728;8.748;2023-03-13T08:51:31;98679.78;;;12.47;100.00
34925;BME280;21130;51.728;8.748;2023-03-13T08:53:59;98672.41;;;12.57;100.00
34925;BME280;21130;51.728;8.748;2023-03-13T08:56:27;98678.94;;;12.66;100.00
34925;BME280;21130;51.728;8.748;2023-03-13T08:58:57;98673.69;;;12.64;100.00
34925;BME280;21130;51.728;8.748;2023-03-13T09:01:25;98666.97;;;12.65;100.00
34925;BME280;21130;51.728;8.748;2023-03-13T09:03:52;98667.19;;;12.69;100.00
34925;BME280;21130;51.728;8.748;2023-03-13T09:06:19;98666.28;;;12.73;100.00
34925;BME280;21130;51.728;8.748;2023-03-13T09:08:45;98677.13;;;12.75;100.00
34925;BME280;21130;51.728;8.748;2023-03-13T09:11:14;98665.88;;;12.80;100.00
34925;BME280;21130;51.728;8.748;2023-03-13T09:13:42;98672.81;;;12.83;100.00
34925;BME280;21130;51.728;8.748;2023-03-13T09:16:12;98664.47;;;12.83;100.00
34925;BME280;21130;51.728;8.748;2023-03-13T09:18:40;98650.75;;;12.86;100.00
34925;BME280;21130;51.728;8.748;2023-03-13T09:21:08;98653.22;;;12.88;100.00
34925;BME280;21130;51.728;8.748;2023-03-13T09:23:37;98656.63;;;12.85;100.00
34925;BME280;21130;51.728;8.748;2023-03-13T09:26:04;98667.44;;;12.86;100.00
34925;BME280;21130;51.728;8.748;2023-03-13T09:28:33;98668.22;;;12.92;100.00
34925;BME280;21130;51.728;8.748;2023-03-13T09:31:07;98662.75;;;13.01;100.00
34925;BME280;21130;51.728;8.748;2023-03-13T09:33:36;98654.63;;;13.04;100.00
34925;BME280;21130;51.728;8.748;2023-03-13T09:36:03;98668.03;;;13.02;100.00
34925;BME280;21130;51.728;8.748;2023-03-13T09:38:30;98664.09;;;13.03;100.00
34925;BME280;21130;51.728;8.748;2023-03-13T09:41:02;98661.94;;;13.14;100.00
34925;BME280;21130;51.728;8.748;2023-03-13T09:43:38;98640.59;;;13.23;100.00
34925;BME280;21130;51.728;8.748;2023-03-13T09:46:11;98666.28;;;13.20;100.00
34925;BME280;21130;51.728;8.748;2023-03-13T09:48:43;98658.13;;;13.24;100.00
34925;BME280;21130;51.728;8.748;2023-03-13T09:51:15;98663.19;;;13.22;100.00
34925;BME280;21130;51.728;8.748;2023-03-13T09:53:46;98657.59;;;13.22;100.00
34925;BME280;21130;51.728;8.748;2023-03-13T09:56:19;98661.53;;;13.21;100.00
34925;BME280;21130;51.728;8.748;2023-03-13T09:58:51;98679.69;;;13.18;100.00
34925;BME280;21130;51.728;8.748;2023-03-13T10:01:21;98663.38;;;13.11;100.00
34925;BME280;21130;51.728;8.748;2023-03-13T10:03:56;98678.16;;;13.12;100.00
34925;BME280;21130;51.728;8.748;2023-03-13T10:06:26;98678.44;;;13.10;100.00
34925;BME280;21130;51.728;8.748;2023-03-13T10:08:56;98675.38;;;13.12;100.00
34925;BME280;21130;51.728;8.748;2023-03-13T10:11:27;98673.41;;;13.12;100.00
34925;BME280;21130;51.728;8.748;2023-03-13T10:14:15;98668.13;;;13.11;100.00
34925;BME280;21130;51.728;8.748;2023-03-13T10:16:48;98665.34;;;13.11;100.00
34925;BME280;21130;51.728;8.748;2023-03-13T10:19:19;98665.56;;;13.14;100.00
34925;BME280;21130;51.728;8.748;2023-03-13T10:21:56;98651.53;;;13.19;100.00
34925;BME280;21130;51.728;8.748;2023-03-13T10:24:30;98648.06;;;13.28;100.00
34925;BME280;21130;51.728;8.748;2023-03-13T10:26:58;98659.84;;;13.38;100.00
34925;BME280;21130;51.728;8.748;2023-03-13T10:29:26;98663.66;;;13.56;100.00
34925;BME280;21130;51.728;8.748;2023-03-13T10:31:56;98653.03;;;13.58;100.00
34925;BME280;21130;51.728;8.748;2023-03-13T10:34:49;98646.81;;;13.61;100.00
34925;BME280;21130;51.728;8.748;2023-03-13T10:37:20;98647.16;;;13.60;100.00
34925;BME280;21130;51.728;8.748;2023-03-13T10:39:47;98649.72;;;13.56;100.00
34925;BME280;21130;51.728;8.748;2023-03-13T10:42:20;98642.59;;;13.50;100.00
34925;BME280;21130;51.728;8.748;2023-03-13T10:44:47;98643.66;;;13.54;100.00
34925;BME280;21130;51.728;8.748;2023-03-13T10:47:14;98628.97;;;13.63;100.00
34925;BME280;21130;51.728;8.748;2023-03-13T10:49:47;98642.28;;;13.66;100.00
34925;BME280;21130;51.728;8.748;2023-03-13T10:52:29;98644.78;;;13.67;100.00
34925;BME280;21130;51.728;8.748;2023-03-13T10:54:58;98644.34;;;13.74;100.00
34925;BME280;21130;51.728;8.748;2023-03-13T10:57:28;98621.56;;;13.94;100.00
34925;BME280;21130;51.728;8.748;2023-03-13T10:59:55;98623.31;;;14.04;100.00
34925;BME280;21130;51.728;8.748;2023-03-13T11:02:25;98624.16;;;14.04;100.00
34925;BME280;21130;51.728;8.748;2023-03-13T11:04:54;98611.84;;;14.05;100.00
34925;BME280;21130;51.728;8.748;2023-03-13T11:07:26;98624.88;;;14.10;100.00
34925;BME280;21130;51.728;8.748;2023-03-13T11:09:58;98613.47;;;14.20;100.00
34925;BME280;21130;51.728;8.748;2023-03-13T11:12:25;98609.41;;;14.26;100.00
34925;BME280;21130;51.728;8.748;2023-03-13T11:14:56;98617.66;;;14.32;100.00
34925;BME280;21130;51.728;8.748;2023-03-13T11:17:29;98609.91;;;14.29;100.00
34925;BME280;21130;51.728;8.748;2023-03-13T11:20:12;98598.88;;;14.46;100.00
34925;BME280;21130;51.728;8.748;2023-03-13T11:22:50;98594.63;;;14.48;100.00
34925;BME280;21130;51.728;8.748;2023-03-13T11:25:22;98593.88;;;14.57;100.00
34925;BME280;21130;51.728;8.748;2023-03-13T11:27:58;98596.63;;;14.71;100.00
34925;BME280;21130;51.728;8.748;2023-03-13T11:30:42;98605.00;;;15.02;100.00
34925;BME280;21130;51.728;8.748;2023-03-13T11:33:18;98593.09;;;15.19;100.00
34925;BME280;21130;51.728;8.748;2023-03-13T11:35:53;98593.06;;;15.10;100.00
34925;BME280;21130;51.728;8.748;2023-03-13T11:38:29;98573.75;;;15.31;100.00
34925;BME280;21130;51.728;8.748;2023-03-13T11:41:04;98565.22;;;15.36;100.00
34925;BME280;21130;51.728;8.748;2023-03-13T11:43:45;98556.97;;;15.31;100.00
34925;BME280;21130;51.728;8.748;2023-03-13T11:46:24;98553.94;;;15.10;100.00
34925;BME280;21130;51.728;8.748;2023-03-13T11:49:13;98550.97;;;15.06;100.00
34925;BME280;21130;51.728;8.748;2023-03-13T11:51:55;98570.81;;;14.96;100.00
34925;BME280;21130;51.728;8.748;2023-03-13T11:54:42;98544.84;;;14.96;100.00
34925;BME280;21130;51.728;8.748;2023-03-13T11:57:16;98540.06;;;14.96;100.00
34925;BME280;21130;51.728;8.748;2023-03-13T11:59:50;98544.88;;;15.04;100.00
34925;BME280;21130;51.728;8.748;2023-03-13T12:02:24;98543.22;;;15.03;100.00
34925;BME280;21130;51.728;8.748;2023-03-13T12:04:56;98536.03;;;15.11;100.00
34925;BME280;21130;51.728;8.748;2023-03-13T12:07:27;98531.44;;;15.15;100.00
34925;BME280;21130;51.728;8.748;2023-03-13T12:09:59;98510.63;;;15.30;100.00
34925;BME280;21130;51.728;8.748;2023-03-13T12:12:34;98530.19;;;15.39;100.00
34925;BME280;21130;51.728;8.748;2023-03-13T12:15:13;98519.47;;;15.32;100.00
34925;BME280;21130;51.728;8.748;2023-03-13T12:17:45;98505.34;;;15.28;100.00
34925;BME280;21130;51.728;8.748;2023-03-13T12:20:19;98504.69;;;15.23;100.00
34925;BME280;21130;51.728;8.748;2023-03-13T12:22:51;98502.03;;;15.18;100.00
34925;BME280;21130;51.728;8.748;2023-03-13T12:25:23;98486.25;;;15.22;100.00
34925;BME280;21130;51.728;8.748;2023-03-13T12:27:51;98497.28;;;15.27;100.00
34925;BME280;21130;51.728;8.748;2023-03-13T12:30:26;98488.56;;;15.28;100.00
34925;BME280;21130;51.728;8.748;2023-03-13T12:33:01;98493.16;;;15.24;100.00
34925;BME280;21130;51.728;8.748;2023-03-13T12:35:31;98494.66;;;15.30;100.00
34925;BME280;21130;51.728;8.748;2023-03-13T12:38:04;98470.50;;;15.34;100.00
34925;BME280;21130;51.728;8.748;2023-03-13T12:40:40;98465.75;;;15.61;100.00
34925;BME280;21130;51.728;8.748;2023-03-13T12:43:10;98468.56;;;15.87;100.00
34925;BME280;21130;51.728;8.748;2023-03-13T12:45:49;98451.47;;;15.97;100.00
34925;BME280;21130;51.728;8.748;2023-03-13T12:48:41;98443.25;;;15.84;100.00
34925;BME280;21130;51.728;8.748;2023-03-13T12:51:24;98441.97;;;15.72;100.00
34925;BME280;21130;51.728;8.748;2023-03-13T12:54:26;98429.25;;;15.84;100.00
34925;BME280;21130;51.728;8.748;2023-03-13T12:57:16;98426.78;;;15.91;100.00
34925;BME280;21130;51.728;8.748;2023-03-13T12:59:48;98424.91;;;16.21;100.00
34925;BME280;21130;51.728;8.748;2023-03-13T13:02:21;98408.63;;;16.14;100.00
34925;BME280;21130;51.728;8.748;2023-03-13T13:04:49;98406.00;;;16.18;100.00